Time;durP1;ratioP1;P1;durP2;ratioP2;P2;SDS_P1;SDS_P2;PMS_P1;PMS_P2;Temp;Humidity;BMP_temperature;BMP_pressure;BME280_temperature;BME280_humidity;BME280_pressure;Samples;Min_cycle;Max_cycle;Signal;HPM_P1;HPM_P2
2021/10/10 00:01:14;;;;;;;324.37;80.67;;;8.80;99.90;;;;;;6127963;23;20508;-74
2021/10/10 00:03:42;;;;;;;159.93;58.63;;;8.80;99.90;;;;;;6101620;23;20417;-74
2021/10/10 00:06:10;;;;;;;127.17;57.30;;;8.80;99.90;;;;;;6101750;23;20931;-74
2021/10/10 00:08:38;;;;;;;370.13;105.87;;;8.70;99.90;;;;;;6101508;23;20526;-74
2021/10/10 00:11:07;;;;;;;236.70;66.43;;;8.70;99.90;;;;;;6101244;23;20406;-74
2021/10/10 00:13:35;;;;;;;448.80;90.53;;;8.70;99.90;;;;;;6101933;23;20425;-74
2021/10/10 00:16:03;;;;;;;425.17;90.03;;;8.60;99.90;;;;;;6101522;23;20676;-75
2021/10/10 00:18:32;;;;;;;433.33;96.90;;;8.60;99.90;;;;;;6101570;23;20441;-74
2021/10/10 00:21:01;;;;;;;224.90;55.10;;;8.60;99.90;;;;;;6137216;23;20516;-74
2021/10/10 00:23:29;;;;;;;403.27;97.20;;;8.50;99.90;;;;;;6137314;23;20485;-74
2021/10/10 00:25:57;;;;;;;291.83;72.73;;;8.60;99.90;;;;;;6101563;23;20417;-74
2021/10/10 00:28:25;;;;;;;269.10;59.97;;;8.50;99.90;;;;;;6101358;23;20952;-74
2021/10/10 00:30:55;;;;;;;319.70;69.40;;;8.50;99.90;;;;;;6101476;23;20418;-74
2021/10/10 00:33:23;;;;;;;323.67;84.17;;;8.40;99.90;;;;;;6101539;23;20582;-74
2021/10/10 00:35:53;;;;;;;103.93;36.13;;;8.40;99.90;;;;;;6100899;23;20501;-74
2021/10/10 00:38:21;;;;;;;297.23;75.37;;;8.40;99.90;;;;;;6137062;23;20449;-74
2021/10/10 00:40:50;;;;;;;320.90;73.97;;;8.40;99.90;;;;;;6101386;23;20442;-73
2021/10/10 00:43:18;;;;;;;363.93;93.50;;;8.30;99.90;;;;;;6127700;23;20802;-74
2021/10/10 00:45:49;;;;;;;297.60;76.43;;;8.30;99.90;;;;;;6127117;23;20417;-74
2021/10/10 00:48:17;;;;;;;335.33;80.93;;;8.30;99.90;;;;;;6101110;23;20433;-74
2021/10/10 00:50:46;;;;;;;328.23;67.90;;;8.20;99.90;;;;;;6137242;23;20428;-74
2021/10/10 00:53:18;;;;;;;359.70;98.73;;;8.20;99.90;;;;;;6127103;23;20413;-74
2021/10/10 00:55:49;;;;;;;363.63;89.57;;;8.20;99.90;;;;;;6101128;23;20504;-74
2021/10/10 00:58:22;;;;;;;458.53;86.17;;;8.20;99.90;;;;;;6136982;23;20445;-73
2021/10/10 01:00:52;;;;;;;520.60;93.53;;;8.10;99.90;;;;;;6101255;23;20481;-74
2021/10/10 01:03:21;;;;;;;1420.47;250.03;;;8.10;99.90;;;;;;6101242;23;20414;-74
2021/10/10 01:05:50;;;;;;;252.43;68.53;;;8.10;99.90;;;;;;6100978;23;20421;-74
2021/10/10 01:08:20;;;;;;;1376.90;518.97;;;8.00;99.90;;;;;;6100926;23;20460;-74
2021/10/10 01:10:50;;;;;;;1756.53;281.37;;;8.00;99.90;;;;;;6127151;23;20445;-74
2021/10/10 01:13:19;;;;;;;472.77;84.03;;;8.00;99.90;;;;;;6102091;23;20413;-74
2021/10/10 01:15:50;;;;;;;393.80;89.37;;;7.90;99.90;;;;;;6101091;23;20975;-74
2021/10/10 01:18:22;;;;;;;793.67;161.00;;;7.90;99.90;;;;;;6100702;23;20516;-74
2021/10/10 01:20:53;;;;;;;453.27;73.40;;;7.90;99.90;;;;;;6100916;23;20936;-74
2021/10/10 01:23:22;;;;;;;1042.50;213.37;;;7.80;99.90;;;;;;6125291;23;20405;-74
2021/10/10 01:25:50;;;;;;;358.33;80.97;;;7.80;99.90;;;;;;6100996;23;20984;-74
2021/10/10 01:28:19;;;;;;;506.67;98.63;;;7.80;99.90;;;;;;6136566;23;20504;-74
2021/10/10 01:30:48;;;;;;;878.13;206.63;;;7.70;99.90;;;;;;6100890;23;20905;-74
2021/10/10 01:33:16;;;;;;;169.70;47.65;;;7.80;99.90;;;;;;6100919;23;20465;-74
2021/10/10 01:41:38;;;;;;;358.10;66.63;;;7.60;99.90;;;;;;6185613;23;20474;-74
2021/10/10 01:44:12;;;;;;;1514.47;315.43;;;7.60;99.90;;;;;;6196640;23;20463;-74
2021/10/10 01:46:41;;;;;;;1474.43;483.40;;;7.60;99.90;;;;;;6160569;23;20798;-74
2021/10/10 01:49:09;;;;;;;1198.57;258.43;;;7.50;99.90;;;;;;6181269;23;20439;-74
2021/10/10 01:51:38;;;;;;;659.53;110.90;;;7.50;99.90;;;;;;6189583;23;20407;-74
2021/10/10 01:54:06;;;;;;;1562.57;481.70;;;7.50;99.90;;;;;;6189489;23;20414;-74
2021/10/10 01:56:34;;;;;;;705.70;104.47;;;7.40;99.90;;;;;;6189706;23;20426;-74
2021/10/10 01:59:04;;;;;;;755.97;162.47;;;7.40;99.90;;;;;;6215926;23;20928;-74
2021/10/10 02:01:32;;;;;;;1999.90;999.90;;;7.40;99.90;;;;;;6215769;23;20761;-74
2021/10/10 02:04:01;;;;;;;1535.23;455.13;;;7.40;99.90;;;;;;6225942;23;20889;-74
2021/10/10 02:06:33;;;;;;;1527.53;239.77;;;7.30;99.90;;;;;;6190083;23;20425;-74
2021/10/10 02:09:01;;;;;;;485.70;83.97;;;7.30;99.90;;;;;;6216151;23;20545;-74
2021/10/10 02:11:29;;;;;;;1999.90;999.90;;;7.30;99.90;;;;;;6225910;23;20482;-74
2021/10/10 02:13:57;;;;;;;1796.70;248.40;;;7.30;99.90;;;;;;6225974;23;20405;-74
2021/10/10 02:16:27;;;;;;;1802.60;238.43;;;7.20;99.90;;;;;;6226099;23;20395;-74
2021/10/10 02:18:55;;;;;;;1511.80;221.13;;;7.20;99.90;;;;;;6189423;23;20439;-74
2021/10/10 02:21:23;;;;;;;1999.90;999.90;;;7.10;99.90;;;;;;6189324;23;20430;-74
2021/10/10 02:23:51;;;;;;;1215.93;202.77;;;7.10;99.90;;;;;;6189305;23;20797;-74
2021/10/10 02:26:19;;;;;;;1716.63;242.07;;;7.10;99.90;;;;;;6188957;23;20411;-74
2021/10/10 02:28:47;;;;;;;1887.83;286.53;;;7.00;99.90;;;;;;6225924;23;20429;-74
2021/10/10 02:31:17;;;;;;;1459.87;232.07;;;7.00;99.90;;;;;;6189153;23;20817;-74
2021/10/10 02:33:46;;;;;;;506.00;151.35;;;7.00;99.90;;;;;;6225160;23;20408;-74
2021/10/10 02:36:14;;;;;;;325.47;78.07;;;7.00;99.90;;;;;;6191375;23;20230;-74
2021/10/10 02:38:42;;;;;;;153.27;32.92;;;7.00;99.90;;;;;;6218272;23;20482;-74
2021/10/10 02:41:11;;;;;;;306.70;78.03;;;7.00;99.90;;;;;;6228165;23;20267;-74
2021/10/10 02:43:39;;;;;;;1999.90;506.13;;;7.00;99.90;;;;;;6191315;23;20446;-73
2021/10/10 02:46:07;;;;;;;1507.20;282.53;;;6.90;99.90;;;;;;6191226;23;20509;-74
2021/10/10 02:48:35;;;;;;;1609.60;344.00;;;6.90;99.90;;;;;;6217820;23;20436;-74
2021/10/10 02:51:05;;;;;;;1490.33;256.53;;;6.80;99.90;;;;;;6227713;23;20457;-74
2021/10/10 02:53:33;;;;;;;1319.10;226.57;;;6.80;99.90;;;;;;6217907;23;20494;-74
2021/10/10 02:56:01;;;;;;;1999.90;999.90;;;6.80;99.90;;;;;;6228281;23;20399;-74
2021/10/10 02:58:30;;;;;;;1975.53;282.63;;;6.70;99.90;;;;;;6227392;23;20419;-74
2021/10/10 03:00:58;;;;;;;1458.53;224.77;;;6.70;99.90;;;;;;6227501;23;20434;-74
2021/10/10 03:03:28;;;;;;;1999.90;556.37;;;6.70;99.90;;;;;;6190879;23;20406;-74
2021/10/10 03:05:56;;;;;;;1199.70;211.00;;;6.60;99.90;;;;;;6227946;23;20401;-74
2021/10/10 03:08:25;;;;;;;1714.60;219.43;;;6.60;99.90;;;;;;6217744;23;20450;-74
2021/10/10 03:10:53;;;;;;;1474.17;204.30;;;6.60;99.90;;;;;;6227571;23;20426;-74
2021/10/10 03:13:21;;;;;;;1320.47;187.73;;;6.60;99.90;;;;;;6217851;23;20481;-74
2021/10/10 03:15:50;;;;;;;1824.73;246.30;;;6.50;99.90;;;;;;6227400;23;20453;-74
2021/10/10 03:18:18;;;;;;;1374.50;209.77;;;6.50;99.90;;;;;;6190665;23;20434;-74
2021/10/10 03:20:46;;;;;;;1866.30;299.97;;;6.50;99.90;;;;;;6227305;23;20395;-74
2021/10/10 03:23:15;;;;;;;1999.90;351.43;;;6.40;99.90;;;;;;6190783;23;20501;-74
2021/10/10 03:25:45;;;;;;;1926.43;253.73;;;6.40;99.90;;;;;;6227718;23;20453;-74
2021/10/10 03:28:13;;;;;;;1999.90;999.90;;;6.40;99.90;;;;;;6191151;23;20469;-74
2021/10/10 03:30:43;;;;;;;1999.90;649.20;;;6.30;99.90;;;;;;6191012;23;20425;-74
2021/10/10 03:33:11;;;;;;;1993.30;292.37;;;6.30;99.90;;;;;;6190848;23;20947;-74
2021/10/10 03:35:39;;;;;;;1999.90;352.83;;;6.30;99.90;;;;;;6227676;23;20408;-74
2021/10/10 03:38:07;;;;;;;1780.50;582.97;;;6.30;99.90;;;;;;6227329;23;20924;-74
2021/10/10 03:40:36;;;;;;;1183.83;204.13;;;6.30;99.90;;;;;;6227336;23;20407;-73
2021/10/10 03:43:05;;;;;;;1999.90;999.90;;;6.20;99.90;;;;;;6190423;23;20496;-74
2021/10/10 03:45:34;;;;;;;1999.90;542.33;;;6.20;99.90;;;;;;6190106;23;20804;-74
2021/10/10 03:48:02;;;;;;;1718.07;240.10;;;6.20;99.90;;;;;;6217404;23;20461;-74
2021/10/10 03:50:31;;;;;;;1656.10;262.87;;;6.20;99.90;;;;;;6227254;23;20430;-74
2021/10/10 03:52:59;;;;;;;1780.27;280.13;;;6.10;99.90;;;;;;6227343;23;20395;-74
2021/10/10 03:55:34;;;;;;;1881.27;300.40;;;6.10;99.90;;;;;;6227215;23;20399;-73
2021/10/10 03:58:06;;;;;;;1999.90;648.97;;;6.10;99.90;;;;;;6227585;23;20509;-74
2021/10/10 04:00:35;;;;;;;1999.90;780.73;;;6.10;99.90;;;;;;6227014;23;20387;-74
2021/10/10 04:03:05;;;;;;;1999.90;573.30;;;6.00;99.90;;;;;;6217238;23;20441;-74
2021/10/10 04:05:40;;;;;;;1999.90;807.80;;;6.00;99.90;;;;;;6227097;23;20823;-74
2021/10/10 04:08:09;;;;;;;1999.90;736.20;;;6.00;99.90;;;;;;6190220;23;20441;-74
2021/10/10 04:10:37;;;;;;;1743.93;248.50;;;6.00;99.90;;;;;;6190768;23;20737;-74
2021/10/10 04:13:07;;;;;;;1624.63;265.97;;;6.00;99.90;;;;;;6226984;23;20398;-74
2021/10/10 04:15:37;;;;;;;1999.90;515.57;;;5.90;99.90;;;;;;6190480;23;20411;-74
2021/10/10 04:18:05;;;;;;;1999.90;687.27;;;5.90;99.90;;;;;;6217159;23;20435;-74
2021/10/10 04:20:34;;;;;;;1999.90;375.40;;;5.90;99.90;;;;;;6217293;23;20407;-74
2021/10/10 04:23:02;;;;;;;1999.90;724.43;;;5.90;99.90;;;;;;6226786;23;20728;-74
2021/10/10 04:25:33;;;;;;;1539.87;252.17;;;5.80;99.90;;;;;;6190269;23;20901;-74
2021/10/10 04:28:01;;;;;;;1999.90;999.90;;;5.80;99.90;;;;;;6189780;23;20435;-74
2021/10/10 04:30:30;;;;;;;1999.90;813.13;;;5.80;99.90;;;;;;6190042;23;20442;-74
2021/10/10 04:32:58;;;;;;;1999.90;606.70;;;5.80;99.90;;;;;;6190163;23;20473;-74
2021/10/10 04:35:27;;;;;;;1999.90;728.90;;;5.80;99.90;;;;;;6226754;23;20399;-74
2021/10/10 04:37:55;;;;;;;1999.90;371.37;;;5.70;99.90;;;;;;6190321;23;20855;-74
2021/10/10 04:40:23;;;;;;;1999.90;519.53;;;5.70;99.90;;;;;;6226843;23;20395;-74
2021/10/10 04:42:51;;;;;;;1999.90;885.67;;;5.70;99.90;;;;;;6189559;23;20452;-74
2021/10/10 04:45:20;;;;;;;1939.87;452.37;;;5.70;99.90;;;;;;6190205;23;20283;-74
2021/10/10 04:47:49;;;;;;;1999.90;477.50;;;5.70;99.90;;;;;;6216745;23;20429;-74
2021/10/10 04:50:18;;;;;;;1999.90;999.90;;;5.70;99.90;;;;;;6190032;23;20415;-74
2021/10/10 04:52:46;;;;;;;1999.90;353.60;;;5.70;99.90;;;;;;6227354;23;20409;-74
2021/10/10 04:55:14;;;;;;;1433.57;242.30;;;5.60;99.90;;;;;;6189867;23;20450;-74
2021/10/10 04:57:42;;;;;;;1999.90;999.90;;;5.60;99.90;;;;;;6189578;23;20415;-74
2021/10/10 05:00:12;;;;;;;1999.90;999.90;;;5.60;99.90;;;;;;6227073;23;20394;-74
2021/10/10 05:02:40;;;;;;;1999.90;999.90;;;5.60;99.90;;;;;;6189800;23;21023;-74
2021/10/10 05:05:11;;;;;;;1999.90;413.23;;;5.60;99.90;;;;;;6190024;23;20413;-74
2021/10/10 05:07:39;;;;;;;1999.90;650.60;;;5.60;99.90;;;;;;6227137;23;20387;-74
2021/10/10 05:10:09;;;;;;;1999.90;792.17;;;5.60;99.90;;;;;;6226483;23;20426;-74
2021/10/10 05:12:37;;;;;;;1751.40;224.63;;;5.60;99.90;;;;;;6189852;23;20453;-74
2021/10/10 05:15:06;;;;;;;1999.90;999.90;;;5.60;99.90;;;;;;6189693;23;20449;-74
2021/10/10 05:17:35;;;;;;;1999.90;764.50;;;5.50;99.90;;;;;;6189624;23;20471;-74
2021/10/10 05:20:04;;;;;;;1999.90;486.90;;;5.60;99.90;;;;;;6216488;23;20407;-74
2021/10/10 05:22:33;;;;;;;1999.90;780.47;;;5.50;99.90;;;;;;6189409;23;20470;-74
2021/10/10 05:25:02;;;;;;;1999.90;999.90;;;5.50;99.90;;;;;;6189864;23;20417;-74
2021/10/10 05:27:30;;;;;;;1999.90;750.47;;;5.50;99.90;;;;;;6189637;23;20413;-74
2021/10/10 05:29:59;;;;;;;1999.90;999.90;;;5.50;99.90;;;;;;6189545;23;20897;-74
2021/10/10 05:32:27;;;;;;;1999.90;851.17;;;5.40;99.90;;;;;;6189520;23;20418;-74
2021/10/10 05:34:56;;;;;;;1999.90;858.30;;;5.40;99.90;;;;;;6189680;23;20410;-74
2021/10/10 05:37:24;;;;;;;1999.90;683.10;;;5.40;99.90;;;;;;6226286;23;20489;-74
2021/10/10 05:39:54;;;;;;;1999.90;551.00;;;5.40;99.90;;;;;;6189483;23;20513;-74
2021/10/10 05:42:22;;;;;;;1999.90;999.90;;;5.40;99.90;;;;;;6189512;23;20447;-74
2021/10/10 05:44:50;;;;;;;1999.90;519.60;;;5.40;99.90;;;;;;6189537;23;20736;-74
2021/10/10 05:47:18;;;;;;;1999.90;693.97;;;5.40;99.90;;;;;;6226259;23;20737;-74
2021/10/10 05:49:46;;;;;;;1999.90;553.10;;;5.30;99.90;;;;;;6216353;23;20419;-74
2021/10/10 05:52:14;;;;;;;1999.90;595.03;;;5.40;99.90;;;;;;6216337;23;20407;-74
2021/10/10 05:54:42;;;;;;;1999.90;393.23;;;5.30;99.90;;;;;;6189471;23;20406;-74
2021/10/10 05:57:14;;;;;;;91.85;44.83;;;5.30;99.90;;;;;;6224439;23;20434;-74
2021/10/10 05:59:42;;;;;;;352.93;83.10;;;5.40;99.90;;;;;;6189132;23;20226;-74
2021/10/10 06:02:11;;;;;;;15.63;14.13;;;5.40;99.90;;;;;;6188524;23;20413;-74
2021/10/10 06:04:40;;;;;;;130.47;74.33;;;5.50;99.90;;;;;;6189397;23;20550;-74
2021/10/10 06:07:08;;;;;;;1999.90;921.37;;;5.50;99.90;;;;;;6189352;23;20860;-74
2021/10/10 06:09:36;;;;;;;1999.90;609.57;;;5.40;99.90;;;;;;6215677;23;20780;-73
2021/10/10 06:12:04;;;;;;;1999.90;999.90;;;5.40;99.90;;;;;;6189096;23;20418;-75
2021/10/10 06:14:34;;;;;;;1999.90;517.93;;;5.40;99.90;;;;;;6189096;23;20497;-75
2021/10/10 06:17:02;;;;;;;1999.90;514.20;;;5.40;99.90;;;;;;6189172;23;20417;-76
2021/10/10 06:19:32;;;;;;;1999.90;454.67;;;5.30;99.90;;;;;;6188925;23;20830;-75
2021/10/10 06:22:00;;;;;;;1999.90;632.83;;;5.30;99.90;;;;;;6216198;23;20415;-75
2021/10/10 06:24:28;;;;;;;1999.90;452.07;;;5.30;99.90;;;;;;6216395;23;20458;-75
2021/10/10 06:26:56;;;;;;;1887.50;720.43;;;5.30;99.90;;;;;;6225863;23;20505;-75
2021/10/10 06:29:25;;;;;;;1999.90;507.97;;;5.30;99.90;;;;;;6225799;23;20419;-75
2021/10/10 06:31:54;;;;;;;1999.90;158.50;;;5.40;99.90;;;;;;6225710;23;20473;-75
2021/10/10 06:34:22;;;;;;;1999.90;720.70;;;5.40;99.90;;;;;;6215874;23;20410;-75
2021/10/10 06:36:50;;;;;;;1999.90;999.90;;;5.40;99.90;;;;;;6225734;23;20391;-75
2021/10/10 06:39:19;;;;;;;1999.90;344.70;;;5.40;99.90;;;;;;6188833;23;20965;-75
2021/10/10 06:41:50;;;;;;;1999.90;999.90;;;5.30;99.90;;;;;;6189011;23;20426;-75
2021/10/10 06:44:20;;;;;;;1999.90;736.33;;;5.40;99.90;;;;;;6188291;23;20940;-75
2021/10/10 06:46:48;;;;;;;1942.17;466.00;;;5.40;99.90;;;;;;6188273;23;20453;-75
2021/10/10 06:49:18;;;;;;;1999.90;999.90;;;5.40;99.90;;;;;;6215434;23;20921;-75
2021/10/10 06:51:46;;;;;;;1999.90;545.87;;;5.40;99.90;;;;;;6225589;23;20422;-75
2021/10/10 06:54:14;;;;;;;1999.90;999.90;;;5.40;99.90;;;;;;6189241;23;20410;-75
2021/10/10 06:56:42;;;;;;;1999.90;498.23;;;5.40;99.90;;;;;;6226282;23;20490;-75
2021/10/10 06:59:10;;;;;;;1999.90;891.10;;;5.40;99.90;;;;;;6225973;23;20414;-75
2021/10/10 07:01:40;;;;;;;1999.90;851.70;;;5.40;99.90;;;;;;6188957;23;20411;-75
2021/10/10 07:04:08;;;;;;;1999.90;663.17;;;5.50;99.90;;;;;;6189083;23;20513;-75
2021/10/10 07:06:38;;;;;;;1496.37;200.73;;;5.50;99.90;;;;;;6188923;23;20406;-75
2021/10/10 07:09:06;;;;;;;1999.90;666.93;;;5.50;99.90;;;;;;6188955;23;20518;-76
2021/10/10 07:11:34;;;;;;;1999.90;999.90;;;5.50;99.90;;;;;;6189443;23;20419;-77
2021/10/10 07:14:02;;;;;;;1999.90;695.90;;;5.50;99.90;;;;;;6189019;23;20418;-76
2021/10/10 07:16:32;;;;;;;18.92;17.23;;;5.50;99.90;;;;;;6224200;23;20840;-76
2021/10/10 07:19:00;;;;;;;183.53;38.90;;;5.60;99.90;;;;;;6188983;23;20203;-76
2021/10/10 07:21:41;;;;;;;18.30;16.67;;;5.70;99.90;;;;;;6189757;23;20504;-76
2021/10/10 07:26:56;;;;;;;1669.73;481.47;;;5.80;99.90;;;;;;6190714;23;20434;-76
2021/10/10 07:29:24;;;;;;;1999.90;808.87;;;5.80;99.90;;;;;;6227343;23;20429;-76
2021/10/10 07:31:52;;;;;;;1999.90;997.70;;;5.90;99.90;;;;;;6227202;23;20406;-77
2021/10/10 07:34:20;;;;;;;1999.90;999.90;;;5.90;99.90;;;;;;6227493;23;20394;-77
2021/10/10 07:36:48;;;;;;;1999.90;971.80;;;5.90;99.90;;;;;;6227259;23;20402;-77
2021/10/10 07:39:19;;;;;;;1999.90;966.33;;;6.00;99.90;;;;;;6190831;23;20474;-76
2021/10/10 07:41:47;;;;;;;1999.90;949.43;;;6.00;99.90;;;;;;6191001;23;20457;-76
2021/10/10 07:44:16;;;;;;;1999.90;871.67;;;6.10;99.90;;;;;;6190947;23;20435;-77
2021/10/10 07:46:54;;;;;;;1999.90;847.87;;;6.10;99.90;;;;;;6191171;23;20425;-76
2021/10/10 07:49:22;;;;;;;1999.90;788.47;;;6.20;99.90;;;;;;6227621;23;20453;-76
2021/10/10 07:51:50;;;;;;;1999.90;890.17;;;6.20;99.90;;;;;;6191285;23;20505;-76
2021/10/10 07:54:20;;;;;;;1890.90;585.83;;;6.30;99.90;;;;;;6228011;23;20419;-74
2021/10/10 07:56:48;;;;;;;1675.50;497.93;;;6.40;99.90;;;;;;6218332;23;20481;-74
2021/10/10 07:59:17;;;;;;;1187.37;370.80;;;6.50;99.90;;;;;;6190917;23;20435;-74
2021/10/10 08:01:45;;;;;;;789.13;218.10;;;6.60;99.90;;;;;;6218165;23;20794;-74
2021/10/10 08:04:13;;;;;;;314.30;87.83;;;6.70;99.90;;;;;;6190931;23;20502;-74
2021/10/10 08:06:41;;;;;;;684.93;178.33;;;6.80;99.90;;;;;;6190796;23;20418;-74
2021/10/10 08:09:10;;;;;;;232.90;51.57;;;6.90;99.90;;;;;;6191397;23;20435;-74
2021/10/10 08:11:39;;;;;;;347.23;70.93;;;6.90;99.90;;;;;;6218069;23;20491;-74
2021/10/10 08:14:07;;;;;;;352.40;68.23;;;7.00;99.90;;;;;;6228358;23;20474;-74
2021/10/10 08:16:36;;;;;;;434.27;89.80;;;7.10;99.90;;;;;;6191210;23;20418;-74
2021/10/10 08:19:04;;;;;;;269.13;62.00;;;7.10;99.90;;;;;;6190767;23;20438;-74
2021/10/10 08:21:32;;;;;;;324.17;62.57;;;7.20;99.90;;;;;;6191193;23;20415;-73
2021/10/10 08:24:01;;;;;;;171.47;54.97;;;7.30;99.90;;;;;;6191057;23;20980;-75
2021/10/10 08:26:30;;;;;;;339.97;74.27;;;7.30;99.90;;;;;;6227923;23;20486;-74
2021/10/10 08:29:03;;;;;;;375.97;74.60;;;7.50;99.90;;;;;;6190653;23;20779;-74
2021/10/10 08:31:31;;;;;;;320.73;70.27;;;7.60;99.90;;;;;;6190277;23;20944;-73
2021/10/10 08:33:59;;;;;;;22.92;20.83;;;7.70;99.90;;;;;;6189444;23;20497;-73
2021/10/10 08:36:59;;;;;;;274.67;76.00;;;7.90;99.90;;;;;;6190743;23;20236;-73
2021/10/10 08:39:37;;;;;;;34.80;31.48;;;8.10;99.90;;;;;;6215279;23;20417;-71
2021/10/10 08:42:12;;;;;;;492.67;105.80;;;8.30;99.90;;;;;;6227694;23;20559;-73
2021/10/10 08:44:45;;;;;;;233.47;78.80;;;8.40;99.90;;;;;;6189988;23;20995;-74
2021/10/10 08:47:16;;;;;;;319.40;80.50;;;8.50;99.90;;;;;;6226495;23;20375;-76
2021/10/10 08:49:45;;;;;;;465.13;96.43;;;8.50;99.90;;;;;;6189817;23;20936;-74
2021/10/10 08:52:14;;;;;;;376.00;102.67;;;8.60;99.90;;;;;;6189834;23;20414;-74
2021/10/10 08:54:51;;;;;;;540.80;106.63;;;8.70;99.90;;;;;;6216467;23;20405;-74
2021/10/10 08:57:19;;;;;;;277.37;80.53;;;8.80;99.90;;;;;;6216954;23;20399;-73
2021/10/10 08:59:53;;;;;;;445.87;92.23;;;8.80;99.90;;;;;;6226526;23;20477;-74
2021/10/10 09:02:25;;;;;;;333.13;104.77;;;8.90;99.90;;;;;;6226648;23;20458;-74
2021/10/10 09:04:53;;;;;;;107.70;62.90;;;9.00;99.90;;;;;;6189736;23;20948;-74
2021/10/10 09:07:26;;;;;;;50.00;41.60;;;9.10;99.90;;;;;;6226604;23;20403;-74
2021/10/10 09:09:54;;;;;;;51.73;46.53;;;9.20;99.90;;;;;;6189701;23;20940;-74
2021/10/10 09:12:30;;;;;;;60.40;43.03;;;9.30;99.90;;;;;;6226337;23;20733;-74
2021/10/10 09:15:11;;;;;;;205.93;75.40;;;9.30;99.90;;;;;;6189884;23;20764;-73
2021/10/10 09:17:40;;;;;;;324.80;106.40;;;9.40;99.90;;;;;;6226679;23;20387;-74
2021/10/10 09:20:11;;;;;;;84.00;58.90;;;9.50;99.90;;;;;;6226070;23;20402;-74
2021/10/10 09:22:39;;;;;;;93.33;63.00;;;9.50;99.90;;;;;;6226563;23;20486;-74
2021/10/10 09:25:12;;;;;;;121.87;67.30;;;9.60;99.90;;;;;;6226109;23;20442;-74
2021/10/10 09:27:40;;;;;;;152.70;90.70;;;9.70;99.90;;;;;;6189384;23;20417;-74
2021/10/10 09:30:11;;;;;;;894.37;392.53;;;9.70;99.90;;;;;;6216407;23;20422;-75
2021/10/10 09:32:44;;;;;;;628.10;251.30;;;9.80;99.90;;;;;;6189041;23;20457;-76
2021/10/10 09:35:35;;;;;;;420.70;172.93;;;9.90;99.90;;;;;;6216288;23;20466;-76
2021/10/10 09:38:15;;;;;;;394.57;204.53;;;10.00;99.90;;;;;;6226329;23;20411;-76
2021/10/10 09:40:47;;;;;;;466.90;193.57;;;10.00;99.90;;;;;;6189548;23;20414;-74
2021/10/10 09:43:18;;;;;;;460.60;257.08;;;10.10;99.90;;;;;;6187768;23;20860;-75
2021/10/10 09:45:54;;;;;;;1853.67;736.23;;;10.20;99.90;;;;;;6189243;23;20718;-75
2021/10/10 09:48:32;;;;;;;1082.55;461.35;;;10.30;99.90;;;;;;6187995;23;20421;-76
2021/10/10 09:51:01;;;;;;;1927.73;757.10;;;10.40;99.90;;;;;;6226651;23;20236;-75
2021/10/10 09:53:33;;;;;;;518.33;196.90;;;10.40;99.90;;;;;;6225726;23;20399;-74
2021/10/10 09:56:05;;;;;;;283.97;145.97;;;10.50;99.90;;;;;;6189473;23;20938;-74
2021/10/10 09:58:38;;;;;;;565.57;255.67;;;10.50;99.90;;;;;;6189315;23;20434;-74
2021/10/10 10:01:17;;;;;;;1409.00;475.13;;;10.50;99.90;;;;;;6188814;23;20407;-74
2021/10/10 10:03:56;;;;;;;825.43;360.87;;;10.60;99.90;;;;;;6226114;23;20387;-74
2021/10/10 10:06:32;;;;;;;730.47;282.90;;;10.60;99.90;;;;;;6189174;23;20524;-74
2021/10/10 10:09:03;;;;;;;671.23;297.63;;;10.70;99.90;;;;;;6225770;23;20755;-73
2021/10/10 10:11:36;;;;;;;740.07;300.17;;;10.70;99.90;;;;;;6188995;23;20746;-74
2021/10/10 10:14:09;;;;;;;893.97;371.40;;;10.70;99.90;;;;;;6226259;23;20753;-74
2021/10/10 10:16:42;;;;;;;1864.20;710.90;;;10.80;99.90;;;;;;6189403;23;20787;-74
2021/10/10 10:19:12;;;;;;;881.33;333.73;;;10.90;99.90;;;;;;6189151;23;20943;-74
2021/10/10 10:21:41;;;;;;;748.27;248.80;;;11.00;99.90;;;;;;6225915;23;20964;-74
2021/10/10 10:24:12;;;;;;;741.53;272.10;;;11.10;99.90;;;;;;6189288;23;20403;-73
2021/10/10 10:26:40;;;;;;;753.73;289.50;;;11.10;99.90;;;;;;6189247;23;20414;-74
2021/10/10 10:29:18;;;;;;;721.30;279.97;;;11.20;99.90;;;;;;6225720;23;20533;-74
2021/10/10 10:31:48;;;;;;;1393.90;544.30;;;11.30;99.90;;;;;;6189140;23;20469;-73
2021/10/10 10:34:21;;;;;;;1836.97;602.53;;;11.30;99.90;;;;;;6225771;23;20481;-74
2021/10/10 10:36:51;;;;;;;1656.57;572.53;;;11.40;99.90;;;;;;6216070;23;20691;-74
2021/10/10 10:39:40;;;;;;;1686.80;514.27;;;11.40;99.90;;;;;;6189077;23;20529;-74
2021/10/10 10:42:39;;;;;;;1380.27;499.40;;;11.50;99.90;;;;;;6188971;23;20462;-74
2021/10/10 10:45:21;;;;;;;1149.72;500.25;;;11.50;99.90;;;;;;6187422;23;20816;-74
2021/10/10 10:47:53;;;;;;;1999.90;999.90;;;11.70;99.90;;;;;;6189168;23;20195;-74
2021/10/10 10:50:22;;;;;;;1470.95;605.53;;;11.70;99.90;;;;;;6187762;23;20471;-74
2021/10/10 10:52:59;;;;;;;1828.57;726.80;;;11.80;99.90;;;;;;6225762;23;20558;-74
2021/10/10 10:55:30;;;;;;;1999.90;999.90;;;11.90;99.90;;;;;;6226429;23;20856;-75
2021/10/10 10:58:00;;;;;;;1999.90;637.83;;;11.90;99.90;;;;;;6190968;23;20434;-74
2021/10/10 11:00:34;;;;;;;1641.87;498.87;;;11.90;99.90;;;;;;6191188;23;20927;-74
2021/10/10 11:03:18;;;;;;;1377.47;417.87;;;11.90;99.90;;;;;;6227731;23;20406;-75
2021/10/10 11:05:49;;;;;;;1732.63;545.33;;;11.90;99.90;;;;;;6191842;23;20458;-74
2021/10/10 11:08:40;;;;;;;1634.90;486.10;;;12.00;99.90;;;;;;6228158;23;20827;-74
2021/10/10 11:11:18;;;;;;;1429.97;448.57;;;12.00;99.90;;;;;;6227912;23;20388;-74
2021/10/10 11:13:50;;;;;;;1788.13;487.17;;;12.10;99.90;;;;;;6190780;23;20496;-75
2021/10/10 11:16:19;;;;;;;1910.83;638.70;;;12.10;99.90;;;;;;6190834;23;20817;-74
2021/10/10 11:18:51;;;;;;;1999.90;669.43;;;12.20;99.90;;;;;;6227292;23;20422;-74
2021/10/10 11:21:22;;;;;;;1999.90;694.53;;;12.20;99.90;;;;;;6190863;23;20489;-74
2021/10/10 11:23:52;;;;;;;1999.90;744.70;;;12.30;99.90;;;;;;6227740;23;20470;-74
2021/10/10 11:26:22;;;;;;;1999.90;999.90;;;12.30;99.90;;;;;;6190457;23;20427;-74
2021/10/10 11:28:53;;;;;;;1999.90;999.90;;;12.40;99.90;;;;;;6190480;23;21012;-74
2021/10/10 11:31:23;;;;;;;1999.90;999.90;;;12.40;99.90;;;;;;6227896;23;20473;-74
2021/10/10 11:33:56;;;;;;;1999.90;999.90;;;12.40;99.90;;;;;;6227821;23;20379;-74
2021/10/10 11:36:36;;;;;;;1999.90;999.90;;;12.50;99.90;;;;;;6190857;23;20425;-74
2021/10/10 11:39:07;;;;;;;1999.90;999.90;;;12.50;99.90;;;;;;6190129;23;20500;-74
2021/10/10 11:41:39;;;;;;;1999.90;999.90;;;12.60;99.90;;;;;;6216989;23;20626;-74
2021/10/10 11:44:10;;;;;;;1999.90;999.90;;;12.60;99.90;;;;;;6190571;23;20414;-74
2021/10/10 11:46:43;;;;;;;1999.90;999.90;;;12.70;99.90;;;;;;6226634;23;20505;-73
2021/10/10 11:49:38;;;;;;;1999.90;999.90;;;12.70;99.90;;;;;;6190432;23;20437;-74
2021/10/10 11:52:24;;;;;;;1999.90;999.90;;;12.80;99.90;;;;;;6227117;23;20407;-74
2021/10/10 11:54:59;;;;;;;1999.90;999.90;;;12.80;99.90;;;;;;6190618;23;20505;-74
2021/10/10 11:57:29;;;;;;;1999.90;999.90;;;12.90;99.90;;;;;;6190409;23;20972;-74
2021/10/10 11:59:58;;;;;;;1999.90;999.90;;;13.00;99.90;;;;;;6190357;23;20419;-74
2021/10/10 12:02:34;;;;;;;1999.90;999.90;;;13.00;99.90;;;;;;6227048;23;20402;-74
2021/10/10 12:05:06;;;;;;;1999.90;999.90;;;13.10;99.90;;;;;;6226446;23;20422;-74
2021/10/10 12:07:35;;;;;;;1999.90;466.83;;;13.10;99.90;;;;;;6225805;23;20473;-75
2021/10/10 12:10:04;;;;;;;1999.90;999.90;;;13.20;99.90;;;;;;6226319;23;20477;-75
2021/10/10 12:12:33;;;;;;;1999.90;999.90;;;13.20;99.90;;;;;;6189228;23;20497;-74
2021/10/10 12:15:01;;;;;;;1999.90;999.90;;;13.30;99.90;;;;;;6226282;23;20800;-74
2021/10/10 12:17:32;;;;;;;1999.90;999.90;;;13.40;99.90;;;;;;6226057;23;20449;-74
2021/10/10 12:20:03;;;;;;;1999.90;999.90;;;13.40;99.90;;;;;;6217145;23;20410;-75
2021/10/10 12:22:32;;;;;;;1999.90;999.90;;;13.50;99.90;;;;;;6190300;23;20446;-74
2021/10/10 12:25:01;;;;;;;1999.90;644.00;;;13.60;99.90;;;;;;6226789;23;20479;-75
2021/10/10 12:27:33;;;;;;;1999.90;737.53;;;13.60;99.90;;;;;;6190010;23;20427;-75
2021/10/10 12:30:02;;;;;;;1999.90;483.57;;;13.60;99.90;;;;;;6226779;23;20391;-74
2021/10/10 12:32:32;;;;;;;1999.90;999.90;;;13.70;99.90;;;;;;6188573;23;20955;-74
2021/10/10 12:35:09;;;;;;;1999.90;999.90;;;13.80;99.90;;;;;;6190186;23;20674;-75